sensor_id;sensor_type;location;lat;lon;timestamp;P1;durP1;ratioP1;P2;durP2;ratioP2
23394;SDS011;11870;53.084;18.206;2023-03-23T00:01:20;40.78;;;20.30;;
23394;SDS011;11870;53.084;18.206;2023-03-23T00:03:48;39.55;;;20.15;;
23394;SDS011;11870;53.084;18.206;2023-03-23T00:06:16;37.58;;;19.27;;
23394;SDS011;11870;53.084;18.206;2023-03-23T00:08:47;32.47;;;18.05;;
23394;SDS011;11870;53.084;18.206;2023-03-23T00:11:16;34.75;;;18.60;;
23394;SDS011;11870;53.084;18.206;2023-03-23T00:13:45;38.00;;;19.52;;
23394;SDS011;11870;53.084;18.206;2023-03-23T00:16:18;34.70;;;18.02;;
23394;SDS011;11870;53.084;18.206;2023-03-23T00:18:59;34.67;;;19.02;;
23394;SDS011;11870;53.084;18.206;2023-03-23T00:21:32;37.47;;;18.45;;
23394;SDS011;11870;53.084;18.206;2023-03-23T00:24:01;39.97;;;18.52;;
23394;SDS011;11870;53.084;18.206;2023-03-23T00:26:28;34.28;;;17.63;;
23394;SDS011;11870;53.084;18.206;2023-03-23T00:29:09;34.05;;;18.10;;
23394;SDS011;11870;53.084;18.206;2023-03-23T00:31:46;33.33;;;17.55;;
23394;SDS011;11870;53.084;18.206;2023-03-23T00:34:20;33.13;;;17.48;;
23394;SDS011;11870;53.084;18.206;2023-03-23T00:36:48;32.38;;;17.02;;
23394;SDS011;11870;53.084;18.206;2023-03-23T00:39:16;30.85;;;17.27;;
23394;SDS011;11870;53.084;18.206;2023-03-23T00:41:43;30.85;;;16.98;;
23394;SDS011;11870;53.084;18.206;2023-03-23T00:44:09;31.38;;;16.95;;
23394;SDS011;11870;53.084;18.206;2023-03-23T00:46:42;27.20;;;15.75;;
23394;SDS011;11870;53.084;18.206;2023-03-23T00:49:14;30.52;;;17.05;;
23394;SDS011;11870;53.084;18.206;2023-03-23T00:51:42;30.00;;;16.35;;
23394;SDS011;11870;53.084;18.206;2023-03-23T00:54:09;26.30;;;15.63;;
23394;SDS011;11870;53.084;18.206;2023-03-23T00:56:36;30.40;;;16.30;;
23394;SDS011;11870;53.084;18.206;2023-03-23T00:59:02;30.55;;;16.45;;
23394;SDS011;11870;53.084;18.206;2023-03-23T01:01:29;29.67;;;16.55;;
23394;SDS011;11870;53.084;18.206;2023-03-23T01:03:55;33.28;;;17.30;;
23394;SDS011;11870;53.084;18.206;2023-03-23T01:06:29;28.77;;;17.13;;
23394;SDS011;11870;53.084;18.206;2023-03-23T01:09:10;29.45;;;16.00;;
23394;SDS011;11870;53.084;18.206;2023-03-23T01:11:42;29.65;;;15.80;;
23394;SDS011;11870;53.084;18.206;2023-03-23T01:14:10;32.45;;;17.08;;
23394;SDS011;11870;53.084;18.206;2023-03-23T01:16:37;28.60;;;16.67;;
23394;SDS011;11870;53.084;18.206;2023-03-23T01:19:03;33.40;;;16.65;;
23394;SDS011;11870;53.084;18.206;2023-03-23T01:21:30;31.60;;;16.50;;
23394;SDS011;11870;53.084;18.206;2023-03-23T01:23:56;29.58;;;16.00;;
23394;SDS011;11870;53.084;18.206;2023-03-23T01:26:24;30.63;;;15.65;;
23394;SDS011;11870;53.084;18.206;2023-03-23T01:28:51;25.35;;;14.75;;
23394;SDS011;11870;53.084;18.206;2023-03-23T01:31:19;26.27;;;15.32;;
23394;SDS011;11870;53.084;18.206;2023-03-23T01:33:46;25.80;;;14.85;;
23394;SDS011;11870;53.084;18.206;2023-03-23T01:36:14;25.73;;;14.30;;
23394;SDS011;11870;53.084;18.206;2023-03-23T01:38:45;29.95;;;14.95;;
23394;SDS011;11870;53.084;18.206;2023-03-23T01:41:12;23.02;;;13.65;;
23394;SDS011;11870;53.084;18.206;2023-03-23T01:43:55;31.30;;;15.10;;
23394;SDS011;11870;53.084;18.206;2023-03-23T01:46:25;25.92;;;14.10;;
23394;SDS011;11870;53.084;18.206;2023-03-23T01:48:51;26.13;;;14.38;;
23394;SDS011;11870;53.084;18.206;2023-03-23T01:51:19;26.10;;;14.88;;
23394;SDS011;11870;53.084;18.206;2023-03-23T01:53:47;26.45;;;14.50;;
23394;SDS011;11870;53.084;18.206;2023-03-23T01:56:16;28.13;;;15.02;;
23394;SDS011;11870;53.084;18.206;2023-03-23T01:58:50;26.70;;;15.20;;
23394;SDS011;11870;53.084;18.206;2023-03-23T02:01:16;25.23;;;14.70;;
23394;SDS011;11870;53.084;18.206;2023-03-23T02:03:44;28.30;;;15.60;;
23394;SDS011;11870;53.084;18.206;2023-03-23T02:06:11;26.90;;;15.55;;
23394;SDS011;11870;53.084;18.206;2023-03-23T02:08:38;32.22;;;17.00;;
23394;SDS011;11870;53.084;18.206;2023-03-23T02:11:16;32.20;;;17.08;;
23394;SDS011;11870;53.084;18.206;2023-03-23T02:13:42;37.00;;;17.23;;
23394;SDS011;11870;53.084;18.206;2023-03-23T02:16:44;35.42;;;18.95;;
23394;SDS011;11870;53.084;18.206;2023-03-23T02:35:54;33.35;;;16.73;;
23394;SDS011;11870;53.084;18.206;2023-03-23T02:38:39;31.35;;;16.83;;
23394;SDS011;11870;53.084;18.206;2023-03-23T02:41:10;32.53;;;16.40;;
23394;SDS011;11870;53.084;18.206;2023-03-23T02:43:40;30.05;;;15.73;;
23394;SDS011;11870;53.084;18.206;2023-03-23T02:46:09;32.58;;;17.23;;
23394;SDS011;11870;53.084;18.206;2023-03-23T02:48:36;31.45;;;17.92;;
23394;SDS011;11870;53.084;18.206;2023-03-23T02:51:05;34.65;;;18.45;;
23394;SDS011;11870;53.084;18.206;2023-03-23T02:53:33;37.22;;;18.58;;
23394;SDS011;11870;53.084;18.206;2023-03-23T02:56:01;32.75;;;17.42;;
23394;SDS011;11870;53.084;18.206;2023-03-23T02:58:30;33.30;;;16.35;;
23394;SDS011;11870;53.084;18.206;2023-03-23T03:00:56;31.45;;;16.48;;
23394;SDS011;11870;53.084;18.206;2023-03-23T03:03:28;28.45;;;15.52;;
23394;SDS011;11870;53.084;18.206;2023-03-23T03:06:02;33.63;;;16.33;;
23394;SDS011;11870;53.084;18.206;2023-03-23T03:08:42;30.25;;;15.68;;
23394;SDS011;11870;53.084;18.206;2023-03-23T03:11:16;31.33;;;17.08;;
23394;SDS011;11870;53.084;18.206;2023-03-23T03:16:29;26.77;;;15.10;;
23394;SDS011;11870;53.084;18.206;2023-03-23T03:21:42;29.08;;;15.15;;
23394;SDS011;11870;53.084;18.206;2023-03-23T03:24:10;26.98;;;14.93;;
23394;SDS011;11870;53.084;18.206;2023-03-23T03:26:39;25.27;;;14.43;;
23394;SDS011;11870;53.084;18.206;2023-03-23T03:29:16;27.05;;;14.65;;
23394;SDS011;11870;53.084;18.206;2023-03-23T03:31:45;28.27;;;14.68;;
23394;SDS011;11870;53.084;18.206;2023-03-23T03:34:14;24.88;;;15.10;;
23394;SDS011;11870;53.084;18.206;2023-03-23T03:36:46;31.92;;;16.10;;
23394;SDS011;11870;53.084;18.206;2023-03-23T03:39:14;32.28;;;16.13;;
23394;SDS011;11870;53.084;18.206;2023-03-23T03:41:42;45.28;;;18.92;;
23394;SDS011;11870;53.084;18.206;2023-03-23T03:44:09;42.08;;;18.52;;
23394;SDS011;11870;53.084;18.206;2023-03-23T03:46:36;39.80;;;17.40;;
23394;SDS011;11870;53.084;18.206;2023-03-23T03:49:04;31.30;;;16.30;;
23394;SDS011;11870;53.084;18.206;2023-03-23T03:51:31;32.72;;;15.63;;
23394;SDS011;11870;53.084;18.206;2023-03-23T03:53:58;31.83;;;15.02;;
23394;SDS011;11870;53.084;18.206;2023-03-23T03:56:24;37.20;;;15.98;;
23394;SDS011;11870;53.084;18.206;2023-03-23T03:58:51;30.65;;;15.10;;
23394;SDS011;11870;53.084;18.206;2023-03-23T04:01:18;28.02;;;14.50;;
23394;SDS011;11870;53.084;18.206;2023-03-23T04:03:49;25.77;;;14.35;;
23394;SDS011;11870;53.084;18.206;2023-03-23T04:06:16;28.58;;;14.80;;
23394;SDS011;11870;53.084;18.206;2023-03-23T04:08:43;27.92;;;14.50;;
23394;SDS011;11870;53.084;18.206;2023-03-23T04:11:10;23.73;;;13.85;;
23394;SDS011;11870;53.084;18.206;2023-03-23T04:13:38;25.75;;;13.73;;
23394;SDS011;11870;53.084;18.206;2023-03-23T04:16:04;28.25;;;14.20;;
23394;SDS011;11870;53.084;18.206;2023-03-23T04:18:31;25.42;;;14.25;;
23394;SDS011;11870;53.084;18.206;2023-03-23T04:20:59;26.60;;;13.48;;
23394;SDS011;11870;53.084;18.206;2023-03-23T04:23:27;28.23;;;15.10;;
23394;SDS011;11870;53.084;18.206;2023-03-23T04:25:55;29.02;;;14.15;;
23394;SDS011;11870;53.084;18.206;2023-03-23T04:28:23;26.88;;;14.20;;
23394;SDS011;11870;53.084;18.206;2023-03-23T04:30:51;26.50;;;13.98;;
23394;SDS011;11870;53.084;18.206;2023-03-23T04:33:21;29.02;;;14.88;;
23394;SDS011;11870;53.084;18.206;2023-03-23T04:35:50;31.15;;;15.13;;
23394;SDS011;11870;53.084;18.206;2023-03-23T04:38:20;28.65;;;14.65;;
23394;SDS011;11870;53.084;18.206;2023-03-23T04:40:49;29.65;;;14.88;;
23394;SDS011;11870;53.084;18.206;2023-03-23T04:43:17;25.88;;;13.98;;
23394;SDS011;11870;53.084;18.206;2023-03-23T04:45:46;24.58;;;14.35;;
23394;SDS011;11870;53.084;18.206;2023-03-23T04:48:13;32.05;;;15.68;;
23394;SDS011;11870;53.084;18.206;2023-03-23T04:50:40;26.83;;;13.75;;
23394;SDS011;11870;53.084;18.206;2023-03-23T04:53:06;26.92;;;14.50;;
23394;SDS011;11870;53.084;18.206;2023-03-23T04:55:34;27.45;;;14.65;;
23394;SDS011;11870;53.084;18.206;2023-03-23T04:58:04;24.90;;;13.25;;
23394;SDS011;11870;53.084;18.206;2023-03-23T05:00:31;25.85;;;13.98;;
23394;SDS011;11870;53.084;18.206;2023-03-23T05:02:58;30.65;;;13.57;;
23394;SDS011;11870;53.084;18.206;2023-03-23T05:05:26;24.63;;;13.98;;
23394;SDS011;11870;53.084;18.206;2023-03-23T05:07:53;24.00;;;13.88;;
23394;SDS011;11870;53.084;18.206;2023-03-23T05:10:20;23.38;;;13.68;;
23394;SDS011;11870;53.084;18.206;2023-03-23T05:12:46;26.27;;;14.00;;
23394;SDS011;11870;53.084;18.206;2023-03-23T05:15:13;26.50;;;13.75;;
23394;SDS011;11870;53.084;18.206;2023-03-23T05:17:41;23.80;;;13.50;;
23394;SDS011;11870;53.084;18.206;2023-03-23T05:20:12;25.58;;;13.32;;
23394;SDS011;11870;53.084;18.206;2023-03-23T05:22:43;25.25;;;12.70;;
23394;SDS011;11870;53.084;18.206;2023-03-23T05:25:09;29.42;;;13.98;;
23394;SDS011;11870;53.084;18.206;2023-03-23T05:27:37;24.60;;;12.80;;
23394;SDS011;11870;53.084;18.206;2023-03-23T05:30:04;22.33;;;12.63;;
23394;SDS011;11870;53.084;18.206;2023-03-23T05:32:32;22.17;;;12.63;;
23394;SDS011;11870;53.084;18.206;2023-03-23T05:34:58;22.88;;;12.95;;
23394;SDS011;11870;53.084;18.206;2023-03-23T05:37:27;23.33;;;12.77;;
23394;SDS011;11870;53.084;18.206;2023-03-23T05:39:59;27.80;;;13.55;;
23394;SDS011;11870;53.084;18.206;2023-03-23T05:42:30;30.42;;;15.35;;
23394;SDS011;11870;53.084;18.206;2023-03-23T05:44:58;26.90;;;14.40;;
23394;SDS011;11870;53.084;18.206;2023-03-23T05:47:24;29.88;;;14.32;;
23394;SDS011;11870;53.084;18.206;2023-03-23T05:49:51;27.40;;;14.68;;
23394;SDS011;11870;53.084;18.206;2023-03-23T05:52:18;24.13;;;12.43;;
23394;SDS011;11870;53.084;18.206;2023-03-23T05:54:45;26.48;;;12.82;;
23394;SDS011;11870;53.084;18.206;2023-03-23T05:57:12;21.17;;;12.18;;
23394;SDS011;11870;53.084;18.206;2023-03-23T05:59:38;30.48;;;14.80;;
23394;SDS011;11870;53.084;18.206;2023-03-23T06:02:05;23.75;;;12.90;;
23394;SDS011;11870;53.084;18.206;2023-03-23T06:04:31;28.48;;;14.30;;
23394;SDS011;11870;53.084;18.206;2023-03-23T06:07:00;31.58;;;15.65;;
23394;SDS011;11870;53.084;18.206;2023-03-23T06:09:27;22.80;;;12.15;;
23394;SDS011;11870;53.084;18.206;2023-03-23T06:11:54;25.20;;;11.55;;
23394;SDS011;11870;53.084;18.206;2023-03-23T06:14:20;17.70;;;10.77;;
23394;SDS011;11870;53.084;18.206;2023-03-23T06:16:47;21.63;;;11.13;;
23394;SDS011;11870;53.084;18.206;2023-03-23T06:19:14;22.27;;;10.75;;
23394;SDS011;11870;53.084;18.206;2023-03-23T06:21:41;21.88;;;11.25;;
23394;SDS011;11870;53.084;18.206;2023-03-23T06:24:08;19.05;;;10.20;;
23394;SDS011;11870;53.084;18.206;2023-03-23T06:26:36;20.73;;;11.00;;
23394;SDS011;11870;53.084;18.206;2023-03-23T06:29:04;16.75;;;9.30;;
23394;SDS011;11870;53.084;18.206;2023-03-23T06:31:47;14.80;;;9.50;;
23394;SDS011;11870;53.084;18.206;2023-03-23T06:34:16;19.42;;;9.88;;
23394;SDS011;11870;53.084;18.206;2023-03-23T06:36:43;18.30;;;10.05;;
23394;SDS011;11870;53.084;18.206;2023-03-23T06:39:10;19.85;;;9.77;;
23394;SDS011;11870;53.084;18.206;2023-03-23T06:41:38;17.98;;;9.77;;
23394;SDS011;11870;53.084;18.206;2023-03-23T06:44:04;20.65;;;10.25;;
23394;SDS011;11870;53.084;18.206;2023-03-23T06:46:32;18.23;;;10.13;;
23394;SDS011;11870;53.084;18.206;2023-03-23T06:48:58;18.67;;;10.10;;
23394;SDS011;11870;53.084;18.206;2023-03-23T06:51:24;16.30;;;9.50;;
23394;SDS011;11870;53.084;18.206;2023-03-23T06:53:51;15.60;;;9.40;;
23394;SDS011;11870;53.084;18.206;2023-03-23T06:56:17;16.42;;;9.00;;
23394;SDS011;11870;53.084;18.206;2023-03-23T06:58:44;19.27;;;10.68;;
23394;SDS011;11870;53.084;18.206;2023-03-23T07:01:11;14.40;;;8.13;;
23394;SDS011;11870;53.084;18.206;2023-03-23T07:03:38;13.13;;;8.00;;
23394;SDS011;11870;53.084;18.206;2023-03-23T07:06:06;12.45;;;7.32;;
23394;SDS011;11870;53.084;18.206;2023-03-23T07:08:33;13.68;;;6.78;;
23394;SDS011;11870;53.084;18.206;2023-03-23T07:10:59;11.20;;;6.88;;
23394;SDS011;11870;53.084;18.206;2023-03-23T07:13:25;11.70;;;6.68;;
23394;SDS011;11870;53.084;18.206;2023-03-23T07:15:52;11.50;;;6.53;;
23394;SDS011;11870;53.084;18.206;2023-03-23T07:18:20;10.23;;;5.80;;
23394;SDS011;11870;53.084;18.206;2023-03-23T07:20:47;14.82;;;6.05;;
23394;SDS011;11870;53.084;18.206;2023-03-23T07:23:14;8.77;;;5.10;;
23394;SDS011;11870;53.084;18.206;2023-03-23T07:25:42;9.45;;;5.15;;
23394;SDS011;11870;53.084;18.206;2023-03-23T07:28:08;6.72;;;4.80;;
23394;SDS011;11870;53.084;18.206;2023-03-23T07:30:35;9.13;;;4.55;;
23394;SDS011;11870;53.084;18.206;2023-03-23T07:33:03;13.30;;;4.60;;
23394;SDS011;11870;53.084;18.206;2023-03-23T07:35:31;8.13;;;4.75;;
23394;SDS011;11870;53.084;18.206;2023-03-23T07:37:58;10.55;;;4.55;;
23394;SDS011;11870;53.084;18.206;2023-03-23T07:40:25;9.65;;;4.60;;
23394;SDS011;11870;53.084;18.206;2023-03-23T07:42:52;9.38;;;4.22;;
23394;SDS011;11870;53.084;18.206;2023-03-23T07:45:20;9.27;;;4.03;;
23394;SDS011;11870;53.084;18.206;2023-03-23T07:47:46;10.18;;;4.68;;
23394;SDS011;11870;53.084;18.206;2023-03-23T07:50:13;9.07;;;4.32;;
23394;SDS011;11870;53.084;18.206;2023-03-23T07:52:39;6.18;;;4.00;;
23394;SDS011;11870;53.084;18.206;2023-03-23T07:55:07;6.07;;;3.85;;
23394;SDS011;11870;53.084;18.206;2023-03-23T07:57:36;5.25;;;3.88;;
23394;SDS011;11870;53.084;18.206;2023-03-23T08:00:04;6.15;;;3.50;;
23394;SDS011;11870;53.084;18.206;2023-03-23T08:02:45;6.10;;;3.40;;
23394;SDS011;11870;53.084;18.206;2023-03-23T08:05:13;5.60;;;3.33;;
23394;SDS011;11870;53.084;18.206;2023-03-23T08:07:39;5.80;;;3.10;;
23394;SDS011;11870;53.084;18.206;2023-03-23T08:10:06;5.65;;;3.38;;
23394;SDS011;11870;53.084;18.206;2023-03-23T08:12:37;6.60;;;3.10;;
23394;SDS011;11870;53.084;18.206;2023-03-23T08:15:04;5.45;;;2.70;;
23394;SDS011;11870;53.084;18.206;2023-03-23T08:17:32;5.32;;;2.53;;
23394;SDS011;11870;53.084;18.206;2023-03-23T08:19:59;5.07;;;2.67;;
23394;SDS011;11870;53.084;18.206;2023-03-23T08:22:26;5.07;;;2.53;;
23394;SDS011;11870;53.084;18.206;2023-03-23T08:24:54;6.18;;;2.47;;
23394;SDS011;11870;53.084;18.206;2023-03-23T08:27:21;3.70;;;2.17;;
23394;SDS011;11870;53.084;18.206;2023-03-23T08:29:48;4.47;;;2.20;;
23394;SDS011;11870;53.084;18.206;2023-03-23T08:32:14;4.45;;;2.15;;
23394;SDS011;11870;53.084;18.206;2023-03-23T08:34:41;5.15;;;2.20;;
23394;SDS011;11870;53.084;18.206;2023-03-23T08:37:08;4.78;;;2.20;;
23394;SDS011;11870;53.084;18.206;2023-03-23T08:39:35;5.35;;;2.22;;
23394;SDS011;11870;53.084;18.206;2023-03-23T08:42:01;3.55;;;2.25;;
23394;SDS011;11870;53.084;18.206;2023-03-23T08:44:27;4.85;;;2.20;;
23394;SDS011;11870;53.084;18.206;2023-03-23T08:46:54;4.40;;;2.40;;
23394;SDS011;11870;53.084;18.206;2023-03-23T08:49:22;3.95;;;2.20;;
23394;SDS011;11870;53.084;18.206;2023-03-23T08:51:49;4.18;;;2.60;;
23394;SDS011;11870;53.084;18.206;2023-03-23T08:54:15;2.63;;;2.00;;
23394;SDS011;11870;53.084;18.206;2023-03-23T08:56:42;4.15;;;2.10;;
23394;SDS011;11870;53.084;18.206;2023-03-23T08:59:09;2.65;;;2.10;;
23394;SDS011;11870;53.084;18.206;2023-03-23T09:01:35;3.72;;;2.33;;
23394;SDS011;11870;53.084;18.206;2023-03-23T09:04:02;4.97;;;2.30;;
23394;SDS011;11870;53.084;18.206;2023-03-23T09:06:29;4.10;;;2.40;;
23394;SDS011;11870;53.084;18.206;2023-03-23T09:08:56;3.33;;;2.42;;
23394;SDS011;11870;53.084;18.206;2023-03-23T09:11:24;6.28;;;2.55;;
23394;SDS011;11870;53.084;18.206;2023-03-23T09:13:50;5.40;;;2.63;;
23394;SDS011;11870;53.084;18.206;2023-03-23T09:16:17;3.72;;;2.40;;
23394;SDS011;11870;53.084;18.206;2023-03-23T09:18:43;3.90;;;2.22;;
23394;SDS011;11870;53.084;18.206;2023-03-23T09:21:10;4.80;;;2.40;;
23394;SDS011;11870;53.084;18.206;2023-03-23T09:23:38;6.25;;;2.60;;
23394;SDS011;11870;53.084;18.206;2023-03-23T09:26:07;6.78;;;2.45;;
23394;SDS011;11870;53.084;18.206;2023-03-23T09:28:33;3.13;;;2.25;;
23394;SDS011;11870;53.084;18.206;2023-03-23T09:31:00;6.72;;;2.40;;
23394;SDS011;11870;53.084;18.206;2023-03-23T09:33:27;4.35;;;2.35;;
23394;SDS011;11870;53.084;18.206;2023-03-23T09:35:58;5.00;;;2.42;;
23394;SDS011;11870;53.084;18.206;2023-03-23T09:38:24;4.45;;;2.30;;
23394;SDS011;11870;53.084;18.206;2023-03-23T09:49:11;3.58;;;2.30;;
23394;SDS011;11870;53.084;18.206;2023-03-23T09:57:17;2.65;;;1.98;;
23394;SDS011;11870;53.084;18.206;2023-03-23T09:59:55;4.60;;;2.28;;
23394;SDS011;11870;53.084;18.206;2023-03-23T10:02:28;2.88;;;1.70;;
23394;SDS011;11870;53.084;18.206;2023-03-23T10:05:50;4.25;;;2.10;;
23394;SDS011;11870;53.084;18.206;2023-03-23T10:07:56;5.60;;;2.05;;
23394;SDS011;11870;53.084;18.206;2023-03-23T10:10:29;9.65;;;5.47;;
23394;SDS011;11870;53.084;18.206;2023-03-23T10:13:04;4.30;;;2.67;;
23394;SDS011;11870;53.084;18.206;2023-03-23T10:15:52;3.33;;;2.17;;
23394;SDS011;11870;53.084;18.206;2023-03-23T10:21:24;3.92;;;2.13;;
23394;SDS011;11870;53.084;18.206;2023-03-23T10:29:28;3.35;;;2.25;;
23394;SDS011;11870;53.084;18.206;2023-03-23T10:32:20;3.63;;;1.98;;
23394;SDS011;11870;53.084;18.206;2023-03-23T10:35:02;5.32;;;2.50;;
23394;SDS011;11870;53.084;18.206;2023-03-23T10:37:34;4.53;;;2.30;;
23394;SDS011;11870;53.084;18.206;2023-03-23T10:40:05;3.42;;;2.05;;
23394;SDS011;11870;53.084;18.206;2023-03-23T10:42:40;1.92;;;1.80;;
23394;SDS011;11870;53.084;18.206;2023-03-23T10:45:19;3.50;;;2.00;;
23394;SDS011;11870;53.084;18.206;2023-03-23T10:47:53;3.25;;;2.15;;
23394;SDS011;11870;53.084;18.206;2023-03-23T10:50:27;4.97;;;2.33;;
23394;SDS011;11870;53.084;18.206;2023-03-23T10:52:57;4.18;;;2.10;;
23394;SDS011;11870;53.084;18.206;2023-03-23T10:55:34;5.15;;;2.15;;
23394;SDS011;11870;53.084;18.206;2023-03-23T10:58:09;3.25;;;2.00;;
23394;SDS011;11870;53.084;18.206;2023-03-23T11:00:40;4.22;;;2.25;;
23394;SDS011;11870;53.084;18.206;2023-03-23T11:08:13;5.70;;;2.10;;
23394;SDS011;11870;53.084;18.206;2023-03-23T11:13:48;4.30;;;2.40;;
23394;SDS011;11870;53.084;18.206;2023-03-23T11:16:30;5.43;;;2.55;;
23394;SDS011;11870;53.084;18.206;2023-03-23T11:18:58;4.05;;;2.30;;
23394;SDS011;11870;53.084;18.206;2023-03-23T11:21:25;5.68;;;2.15;;
23394;SDS011;11870;53.084;18.206;2023-03-23T11:23:57;3.20;;;2.28;;
23394;SDS011;11870;53.084;18.206;2023-03-23T11:26:25;3.63;;;2.40;;
23394;SDS011;11870;53.084;18.206;2023-03-23T11:31:52;5.65;;;2.47;;
23394;SDS011;11870;53.084;18.206;2023-03-23T11:34:32;5.05;;;2.67;;
23394;SDS011;11870;53.084;18.206;2023-03-23T11:42:45;5.30;;;2.33;;
23394;SDS011;11870;53.084;18.206;2023-03-23T11:45:34;3.30;;;2.40;;
23394;SDS011;11870;53.084;18.206;2023-03-23T11:48:27;3.80;;;2.17;;
23394;SDS011;11870;53.084;18.206;2023-03-23T11:51:16;5.30;;;2.13;;
23394;SDS011;11870;53.084;18.206;2023-03-23T11:53:48;6.60;;;2.08;;
23394;SDS011;11870;53.084;18.206;2023-03-23T11:56:45;5.82;;;2.75;;
23394;SDS011;11870;53.084;18.206;2023-03-23T11:59:16;4.70;;;2.40;;
23394;SDS011;11870;53.084;18.206;2023-03-23T12:01:50;2.80;;;1.95;;
23394;SDS011;11870;53.084;18.206;2023-03-23T12:04:37;3.00;;;2.38;;
23394;SDS011;11870;53.084;18.206;2023-03-23T12:12:16;4.35;;;2.13;;
23394;SDS011;11870;53.084;18.206;2023-03-23T12:24:18;2.25;;;1.60;;
23394;SDS011;11870;53.084;18.206;2023-03-23T12:26:56;5.85;;;2.38;;
23394;SDS011;11870;53.084;18.206;2023-03-23T12:35:02;2.83;;;1.80;;
23394;SDS011;11870;53.084;18.206;2023-03-23T12:37:50;2.20;;;1.65;;
23394;SDS011;11870;53.084;18.206;2023-03-23T12:46:02;2.72;;;1.70;;
23394;SDS011;11870;53.084;18.206;2023-03-23T12:49:38;2.33;;;1.88;;
23394;SDS011;11870;53.084;18.206;2023-03-23T12:51:41;2.60;;;1.70;;
23394;SDS011;11870;53.084;18.206;2023-03-23T13:01:47;2.95;;;2.13;;
23394;SDS011;11870;53.084;18.206;2023-03-23T13:04:29;2.50;;;1.75;;
23394;SDS011;11870;53.084;18.206;2023-03-23T13:07:00;3.85;;;1.83;;
23394;SDS011;11870;53.084;18.206;2023-03-23T13:12:14;2.90;;;2.05;;
23394;SDS011;11870;53.084;18.206;2023-03-23T13:14:48;3.38;;;2.05;;
23394;SDS011;11870;53.084;18.206;2023-03-23T13:17:26;2.97;;;2.00;;
23394;SDS011;11870;53.084;18.206;2023-03-23T13:25:55;3.95;;;2.10;;
23394;SDS011;11870;53.084;18.206;2023-03-23T13:34:44;4.47;;;2.00;;
23394;SDS011;11870;53.084;18.206;2023-03-23T13:36:55;4.88;;;2.22;;
23394;SDS011;11870;53.084;18.206;2023-03-23T13:39:27;2.67;;;1.70;;
23394;SDS011;11870;53.084;18.206;2023-03-23T13:44:43;3.30;;;2.00;;
23394;SDS011;11870;53.084;18.206;2023-03-23T13:49:59;4.93;;;2.40;;
23394;SDS011;11870;53.084;18.206;2023-03-23T13:55:27;5.15;;;2.33;;
23394;SDS011;11870;53.084;18.206;2023-03-23T13:57:57;4.60;;;2.45;;
23394;SDS011;11870;53.084;18.206;2023-03-23T14:00:36;3.13;;;2.40;;
23394;SDS011;11870;53.084;18.206;2023-03-23T14:03:15;4.47;;;2.28;;
23394;SDS011;11870;53.084;18.206;2023-03-23T14:08:36;3.17;;;2.22;;
23394;SDS011;11870;53.084;18.206;2023-03-23T14:11:14;3.22;;;2.00;;
23394;SDS011;11870;53.084;18.206;2023-03-23T14:16:17;4.10;;;2.03;;
23394;SDS011;11870;53.084;18.206;2023-03-23T14:18:51;3.10;;;2.00;;
23394;SDS011;11870;53.084;18.206;2023-03-23T14:24:02;3.45;;;2.00;;
23394;SDS011;11870;53.084;18.206;2023-03-23T14:26:37;2.65;;;1.90;;
23394;SDS011;11870;53.084;18.206;2023-03-23T14:29:04;3.67;;;2.08;;
23394;SDS011;11870;53.084;18.206;2023-03-23T14:31:31;3.58;;;2.00;;
23394;SDS011;11870;53.084;18.206;2023-03-23T14:34:00;3.70;;;2.25;;
23394;SDS011;11870;53.084;18.206;2023-03-23T14:36:30;2.78;;;1.80;;
23394;SDS011;11870;53.084;18.206;2023-03-23T14:39:00;3.65;;;2.20;;
23394;SDS011;11870;53.084;18.206;2023-03-23T14:41:28;2.65;;;1.80;;
23394;SDS011;11870;53.084;18.206;2023-03-23T14:43:55;2.83;;;2.22;;
23394;SDS011;11870;53.084;18.206;2023-03-23T14:46:22;3.78;;;2.22;;
23394;SDS011;11870;53.084;18.206;2023-03-23T14:48:50;3.47;;;1.88;;
23394;SDS011;11870;53.084;18.206;2023-03-23T14:51:17;4.78;;;1.80;;
23394;SDS011;11870;53.084;18.206;2023-03-23T14:53:44;2.83;;;1.90;;
23394;SDS011;11870;53.084;18.206;2023-03-23T14:56:12;3.60;;;1.92;;
23394;SDS011;11870;53.084;18.206;2023-03-23T14:58:49;3.15;;;1.90;;
23394;SDS011;11870;53.084;18.206;2023-03-23T15:01:27;2.47;;;1.70;;
23394;SDS011;11870;53.084;18.206;2023-03-23T15:03:56;3.72;;;1.75;;
23394;SDS011;11870;53.084;18.206;2023-03-23T15:06:33;3.83;;;2.05;;
23394;SDS011;11870;53.084;18.206;2023-03-23T15:09:02;2.97;;;1.80;;
23394;SDS011;11870;53.084;18.206;2023-03-23T15:11:40;3.78;;;2.05;;
23394;SDS011;11870;53.084;18.206;2023-03-23T15:14:08;3.47;;;2.10;;
23394;SDS011;11870;53.084;18.206;2023-03-23T15:16:40;2.97;;;2.22;;
23394;SDS011;11870;53.084;18.206;2023-03-23T15:19:15;2.88;;;2.05;;
23394;SDS011;11870;53.084;18.206;2023-03-23T15:21:53;3.10;;;1.70;;
23394;SDS011;11870;53.084;18.206;2023-03-23T15:24:27;5.78;;;2.20;;
23394;SDS011;11870;53.084;18.206;2023-03-23T15:26:53;3.80;;;2.05;;
23394;SDS011;11870;53.084;18.206;2023-03-23T15:29:21;5.22;;;2.22;;
23394;SDS011;11870;53.084;18.206;2023-03-23T15:31:53;3.65;;;1.90;;
23394;SDS011;11870;53.084;18.206;2023-03-23T15:34:36;7.13;;;2.10;;
23394;SDS011;11870;53.084;18.206;2023-03-23T15:37:17;4.28;;;2.38;;
23394;SDS011;11870;53.084;18.206;2023-03-23T15:39:44;5.07;;;2.20;;
23394;SDS011;11870;53.084;18.206;2023-03-23T15:47:32;3.00;;;2.10;;
23394;SDS011;11870;53.084;18.206;2023-03-23T15:50:03;4.13;;;1.98;;
23394;SDS011;11870;53.084;18.206;2023-03-23T15:52:41;3.75;;;2.10;;
23394;SDS011;11870;53.084;18.206;2023-03-23T15:57:53;3.42;;;2.30;;
23394;SDS011;11870;53.084;18.206;2023-03-23T16:00:21;4.35;;;2.22;;
23394;SDS011;11870;53.084;18.206;2023-03-23T16:02:51;5.65;;;2.30;;
23394;SDS011;11870;53.084;18.206;2023-03-23T16:05:25;4.55;;;2.15;;
23394;SDS011;11870;53.084;18.206;2023-03-23T16:07:52;4.53;;;2.47;;
23394;SDS011;11870;53.084;18.206;2023-03-23T16:10:20;3.85;;;2.42;;
23394;SDS011;11870;53.084;18.206;2023-03-23T16:12:48;6.55;;;2.50;;
23394;SDS011;11870;53.084;18.206;2023-03-23T16:15:14;3.85;;;2.38;;
23394;SDS011;11870;53.084;18.206;2023-03-23T16:17:41;5.60;;;2.70;;
23394;SDS011;11870;53.084;18.206;2023-03-23T16:20:17;5.28;;;3.03;;
23394;SDS011;11870;53.084;18.206;2023-03-23T16:22:45;4.50;;;2.60;;
23394;SDS011;11870;53.084;18.206;2023-03-23T16:25:12;5.47;;;2.35;;
23394;SDS011;11870;53.084;18.206;2023-03-23T16:27:40;4.20;;;2.38;;
23394;SDS011;11870;53.084;18.206;2023-03-23T16:30:25;3.92;;;2.50;;
23394;SDS011;11870;53.084;18.206;2023-03-23T16:32:53;5.63;;;3.25;;
23394;SDS011;11870;53.084;18.206;2023-03-23T16:35:19;6.10;;;3.17;;
23394;SDS011;11870;53.084;18.206;2023-03-23T16:37:50;5.38;;;2.70;;
23394;SDS011;11870;53.084;18.206;2023-03-23T16:40:18;5.60;;;3.08;;
23394;SDS011;11870;53.084;18.206;2023-03-23T16:42:45;5.05;;;3.10;;
23394;SDS011;11870;53.084;18.206;2023-03-23T16:45:11;7.93;;;3.55;;
23394;SDS011;11870;53.084;18.206;2023-03-23T16:47:39;5.25;;;3.22;;
23394;SDS011;11870;53.084;18.206;2023-03-23T16:50:06;7.13;;;3.65;;
23394;SDS011;11870;53.084;18.206;2023-03-23T16:52:36;8.35;;;3.60;;
23394;SDS011;11870;53.084;18.206;2023-03-23T16:55:03;5.47;;;3.55;;